Time;durP1;ratioP1;P1;durP2;ratioP2;P2;SDS_P1;SDS_P2;PMS_P1;PMS_P2;Temp;Humidity;BMP_temperature;BMP_pressure;BME280_temperature;BME280_humidity;BME280_pressure;Samples;Min_cycle;Max_cycle;Signal;HPM_P1;HPM_P2
2022/10/19 00:01:15;;;;;;;2.58;2.03;;;10.90;99.90;;;;;;4972920;28;20023;-74
2022/10/19 00:03:41;;;;;;;7.35;3.78;;;10.80;99.90;;;;;;4973260;28;20484;-76
2022/10/19 00:06:14;;;;;;;6.53;4.43;;;10.80;99.90;;;;;;4972893;28;20377;-74
2022/10/19 00:08:40;;;;;;;6.97;3.38;;;10.90;99.90;;;;;;4971886;28;20041;-75
2022/10/19 00:11:06;;;;;;;7.40;3.75;;;10.90;99.90;;;;;;4972944;28;20383;-76
2022/10/19 00:13:35;;;;;;;6.15;3.55;;;11.10;99.90;;;;;;4973014;28;20029;-76
2022/10/19 00:16:05;;;;;;;5.70;3.35;;;11.10;99.90;;;;;;4972780;28;20057;-75
2022/10/19 00:18:34;;;;;;;6.75;3.88;;;11.10;99.90;;;;;;4971402;28;20113;-76
2022/10/19 00:21:05;;;;;;;8.20;3.97;;;11.20;99.90;;;;;;4972497;28;20113;-75
2022/10/19 00:23:31;;;;;;;4.20;2.97;;;11.00;99.90;;;;;;4972483;28;20096;-75
2022/10/19 00:25:57;;;;;;;8.90;3.70;;;10.90;99.90;;;;;;4972547;28;20424;-75
2022/10/19 00:28:23;;;;;;;11.20;4.00;;;10.90;99.90;;;;;;4971415;28;20133;-76
2022/10/19 00:30:49;;;;;;;6.75;3.88;;;11.00;99.90;;;;;;4971188;28;20126;-75
2022/10/19 00:33:20;;;;;;;8.18;4.60;;;10.90;99.90;;;;;;4972684;28;20038;-75
2022/10/19 00:35:48;;;;;;;8.13;3.67;;;10.90;99.90;;;;;;4971111;28;20397;-75
2022/10/19 00:38:15;;;;;;;5.80;3.22;;;10.90;99.90;;;;;;4972749;28;20419;-75
2022/10/19 00:40:40;;;;;;;7.30;3.08;;;10.90;99.90;;;;;;4972209;28;20034;-75
2022/10/19 00:43:18;;;;;;;4.60;2.75;;;10.90;99.90;;;;;;4972194;28;20023;-75
2022/10/19 00:45:44;;;;;;;6.22;3.08;;;10.80;99.90;;;;;;4971946;28;20503;-75
2022/10/19 00:48:14;;;;;;;3.85;2.30;;;10.70;99.90;;;;;;4972358;28;20102;-75
2022/10/19 00:50:41;;;;;;;7.53;3.90;;;10.70;99.90;;;;;;4972318;28;20118;-76
2022/10/19 00:53:07;;;;;;;9.07;4.57;;;10.80;99.90;;;;;;4972115;28;20023;-74
2022/10/19 00:55:33;;;;;;;9.38;3.90;;;10.90;99.90;;;;;;4972172;28;20027;-76
2022/10/19 00:58:01;;;;;;;10.27;4.53;;;11.00;99.90;;;;;;4972151;28;20019;-75
2022/10/19 01:00:27;;;;;;;9.85;5.32;;;11.10;99.90;;;;;;4971735;28;20050;-75
2022/10/19 01:02:53;;;;;;;3.70;2.50;;;11.30;99.90;;;;;;4972213;28;20503;-75
2022/10/19 01:05:19;;;;;;;4.68;3.13;;;11.30;99.90;;;;;;4970669;28;20170;-74
2022/10/19 01:07:45;;;;;;;7.47;3.53;;;11.40;99.90;;;;;;4971799;28;20562;-76
2022/10/19 01:10:11;;;;;;;6.05;3.10;;;11.40;99.90;;;;;;4972314;28;20019;-75
2022/10/19 01:12:54;;;;;;;7.90;5.93;;;11.40;99.90;;;;;;4972122;28;20054;-75
2022/10/19 01:15:43;;;;;;;5.15;2.72;;;11.50;99.90;;;;;;4971422;28;20078;-75
2022/10/19 01:18:22;;;;;;;7.25;4.30;;;11.50;99.90;;;;;;4971911;28;20518;-76
2022/10/19 01:21:13;;;;;;;9.45;3.60;;;11.60;99.90;;;;;;4971935;28;20058;-76
2022/10/19 01:23:44;;;;;;;7.80;2.97;;;11.60;99.90;;;;;;4971802;28;20030;-75
2022/10/19 01:26:52;;;;;;;5.88;2.78;;;11.70;99.90;;;;;;4971643;28;20133;-75
2022/10/19 01:29:55;;;;;;;3.08;2.50;;;11.60;99.90;;;;;;4971998;28;20101;-76
2022/10/19 01:32:30;;;;;;;11.07;4.28;;;11.60;99.90;;;;;;4971581;28;20027;-75
2022/10/19 01:35:07;;;;;;;5.18;3.50;;;11.70;99.90;;;;;;4971019;28;20046;-76
2022/10/19 01:37:46;;;;;;;3.83;3.33;;;11.80;99.90;;;;;;4971646;28;20415;-74
2022/10/19 01:40:26;;;;;;;9.52;4.97;;;11.90;99.90;;;;;;4971653;28;20037;-74
2022/10/19 01:43:20;;;;;;;6.72;4.10;;;11.90;99.90;;;;;;4971488;28;20054;-75
2022/10/19 01:45:54;;;;;;;10.65;4.55;;;12.00;99.90;;;;;;4970986;28;20023;-74
2022/10/19 01:48:24;;;;;;;10.65;4.32;;;12.00;99.90;;;;;;4971402;28;20034;-76
2022/10/19 01:50:59;;;;;;;9.50;4.38;;;12.10;99.90;;;;;;4971442;28;20046;-75
2022/10/19 01:53:28;;;;;;;13.13;5.57;;;12.10;99.90;;;;;;4971331;28;20035;-75
2022/10/19 01:55:55;;;;;;;14.38;4.78;;;12.20;99.90;;;;;;4971505;28;20023;-75
2022/10/19 01:58:28;;;;;;;9.43;4.95;;;12.30;99.90;;;;;;4971394;28;20023;-75
2022/10/19 02:00:56;;;;;;;9.93;4.80;;;12.30;99.90;;;;;;4971308;28;20035;-75
2022/10/19 02:03:24;;;;;;;10.95;5.20;;;12.40;99.90;;;;;;4971347;28;20080;-75
2022/10/19 02:05:51;;;;;;;6.68;4.05;;;12.30;99.90;;;;;;4971274;28;20090;-74
2022/10/19 02:08:45;;;;;;;13.43;4.85;;;12.30;99.90;;;;;;4971104;28;20030;-75
2022/10/19 02:11:11;;;;;;;13.35;5.60;;;12.40;99.90;;;;;;4961768;28;20031;-76
2022/10/19 02:13:39;;;;;;;13.65;4.38;;;12.50;99.90;;;;;;4971399;28;20023;-76
2022/10/19 02:16:10;;;;;;;26.33;6.47;;;12.50;99.90;;;;;;4970967;28;20031;-75
2022/10/19 02:18:41;;;;;;;13.57;6.63;;;12.50;99.90;;;;;;4969690;28;20054;-75
2022/10/19 02:21:08;;;;;;;16.63;6.40;;;12.60;99.90;;;;;;4970989;28;20570;-75
2022/10/19 02:23:34;;;;;;;17.83;8.93;;;12.60;99.90;;;;;;4970833;28;20044;-75
2022/10/19 02:26:00;;;;;;;12.00;7.50;;;12.60;99.90;;;;;;4970887;28;20035;-75
2022/10/19 02:28:26;;;;;;;12.13;7.18;;;12.60;99.90;;;;;;4971305;28;20038;-75
2022/10/19 02:30:52;;;;;;;20.85;7.25;;;12.70;99.90;;;;;;4970778;28;20027;-75
2022/10/19 02:33:18;;;;;;;10.35;7.47;;;12.80;99.90;;;;;;4970985;28;20090;-75
2022/10/19 02:35:44;;;;;;;14.23;7.28;;;12.80;99.90;;;;;;4971021;28;20464;-75
2022/10/19 02:38:14;;;;;;;20.55;7.25;;;12.90;99.90;;;;;;4971064;28;20419;-75
2022/10/19 02:40:47;;;;;;;18.05;7.90;;;12.90;99.90;;;;;;4971166;28;20027;-76
2022/10/19 02:43:18;;;;;;;10.15;6.97;;;13.00;99.90;;;;;;4970998;28;20042;-75
2022/10/19 02:45:51;;;;;;;20.83;8.35;;;13.10;99.90;;;;;;4971245;28;20042;-76
2022/10/19 02:48:21;;;;;;;13.23;6.45;;;13.00;99.90;;;;;;4976046;28;20387;-75
2022/10/19 02:50:47;;;;;;;14.45;6.57;;;13.00;99.90;;;;;;4977325;28;20022;-77
2022/10/19 02:53:13;;;;;;;16.60;7.28;;;13.00;99.90;;;;;;4978605;28;20078;-75
2022/10/19 02:55:39;;;;;;;27.88;12.85;;;13.00;99.90;;;;;;4977565;28;20036;-76
2022/10/19 02:58:05;;;;;;;18.52;9.90;;;13.00;99.90;;;;;;4979947;28;20030;-75
2022/10/19 03:00:31;;;;;;;14.70;7.45;;;14.70;99.90;;;;;;4975401;28;20093;-74
2022/10/19 03:02:56;;;;;;;15.77;7.93;;;13.00;99.90;;;;;;4977079;28;20102;-75
2022/10/19 03:05:22;;;;;;;16.33;7.82;;;13.00;99.90;;;;;;4976655;28;20248;-75
2022/10/19 03:07:48;;;;;;;19.80;10.20;;;13.00;99.90;;;;;;4974366;28;20035;-75
2022/10/19 03:10:13;;;;;;;26.33;10.88;;;13.00;99.90;;;;;;4974349;28;20109;-77
2022/10/19 03:12:39;;;;;;;17.50;9.85;;;13.10;99.90;;;;;;4973959;28;20259;-75
2022/10/19 03:15:05;;;;;;;26.83;8.88;;;13.10;99.90;;;;;;4973648;28;20388;-74
2022/10/19 03:17:31;;;;;;;21.33;8.75;;;13.10;99.90;;;;;;4973942;28;20034;-75
2022/10/19 03:19:56;;;;;;;16.35;7.18;;;13.10;99.90;;;;;;4972472;28;20055;-75
2022/10/19 03:22:22;;;;;;;18.38;8.15;;;13.10;99.90;;;;;;4973734;28;20023;-75
2022/10/19 03:24:48;;;;;;;9.90;4.45;;;13.10;99.90;;;;;;4973762;28;20392;-75
2022/10/19 03:27:13;;;;;;;32.65;12.63;;;13.00;99.90;;;;;;4973541;28;20483;-75
2022/10/19 03:29:39;;;;;;;11.05;6.97;;;13.00;99.90;;;;;;4973624;28;20030;-76
2022/10/19 03:32:06;;;;;;;16.33;6.45;;;13.10;99.90;;;;;;4973632;28;20034;-75
2022/10/19 03:34:34;;;;;;;13.90;7.35;;;13.10;99.90;;;;;;4973807;28;20026;-75
2022/10/19 03:37:00;;;;;;;14.75;6.70;;;13.00;99.90;;;;;;4973441;28;20027;-75
2022/10/19 03:39:26;;;;;;;10.90;5.97;;;;;;;;;;4973994;28;20031;-76
2022/10/19 03:41:52;;;;;;;21.45;6.53;;;13.10;99.90;;;;;;4973684;28;20026;-75
2022/10/19 03:44:17;;;;;;;10.10;6.55;;;13.10;99.90;;;;;;4973844;28;20384;-75
2022/10/19 03:46:43;;;;;;;25.25;10.77;;;13.10;99.90;;;;;;4973138;28;20070;-76
2022/10/19 03:49:09;;;;;;;29.42;10.32;;;13.10;99.90;;;;;;4973422;28;20460;-75
2022/10/19 03:51:35;;;;;;;10.93;6.00;;;13.10;99.90;;;;;;4973734;28;20085;-76
2022/10/19 03:54:04;;;;;;;12.35;6.18;;;13.10;99.90;;;;;;4973265;28;20026;-75
2022/10/19 03:56:30;;;;;;;11.10;6.03;;;13.10;99.90;;;;;;4973151;28;20023;-76
2022/10/19 03:58:58;;;;;;;9.00;4.95;;;13.10;99.90;;;;;;4971542;28;20431;-75
2022/10/19 04:01:27;;;;;;;22.88;9.20;;;13.00;99.90;;;;;;4972771;28;20023;-75
2022/10/19 04:03:59;;;;;;;18.83;8.82;;;13.00;99.90;;;;;;4973440;28;20077;-75
2022/10/19 04:06:27;;;;;;;14.43;8.63;;;13.10;99.90;;;;;;4981537;28;20053;-76
2022/10/19 04:08:53;;;;;;;34.90;9.13;;;13.00;99.90;;;;;;4987939;28;20022;-75
2022/10/19 04:11:22;;;;;;;12.77;6.13;;;13.00;99.90;;;;;;4989244;28;20030;-75
2022/10/19 04:13:49;;;;;;;21.10;8.83;;;12.90;99.90;;;;;;4990428;28;20231;-76
2022/10/19 04:16:19;;;;;;;17.05;8.57;;;12.90;99.90;;;;;;4989488;28;20571;-74
2022/10/19 04:18:45;;;;;;;12.20;7.25;;;12.80;99.90;;;;;;4988869;28;20053;-75
2022/10/19 04:21:28;;;;;;;37.63;8.10;;;12.80;99.90;;;;;;4974400;28;20100;-77
2022/10/19 04:23:59;;;;;;;13.57;6.20;;;12.80;99.90;;;;;;4981427;28;20151;-78
2022/10/19 04:26:25;;;;;;;25.77;9.43;;;12.70;99.90;;;;;;4979913;28;20057;-75
2022/10/19 04:28:51;;;;;;;16.95;8.48;;;12.70;99.90;;;;;;4976966;28;20323;-75
2022/10/19 04:31:16;;;;;;;16.00;7.57;;;12.70;99.90;;;;;;4976395;28;20022;-76
2022/10/19 04:33:42;;;;;;;21.30;10.95;;;12.70;99.90;;;;;;4976483;28;20086;-77
2022/10/19 04:36:10;;;;;;;20.65;8.32;;;12.70;99.90;;;;;;4979435;28;20022;-75
2022/10/19 04:38:36;;;;;;;17.55;6.97;;;12.60;99.90;;;;;;4974910;28;20023;-75
2022/10/19 04:41:04;;;;;;;14.52;7.60;;;12.60;99.90;;;;;;4975636;28;20105;-76
2022/10/19 04:43:30;;;;;;;8.65;6.18;;;12.50;99.90;;;;;;4975440;28;20034;-75
2022/10/19 04:45:55;;;;;;;23.77;11.55;;;12.50;99.90;;;;;;4978186;28;20030;-76
2022/10/19 04:48:21;;;;;;;14.23;7.75;;;12.50;99.90;;;;;;4991717;28;20034;-75
2022/10/19 04:50:47;;;;;;;32.30;12.48;;;12.60;99.90;;;;;;4991580;28;20372;-75
2022/10/19 04:53:13;;;;;;;23.90;6.80;;;12.50;99.90;;;;;;4989418;28;20026;-75
2022/10/19 04:55:42;;;;;;;28.02;13.60;;;12.40;99.90;;;;;;4990876;28;20045;-75
2022/10/19 04:58:08;;;;;;;13.68;5.93;;;12.50;99.90;;;;;;4991776;28;20034;-75
2022/10/19 05:00:33;;;;;;;16.67;8.05;;;12.40;99.90;;;;;;4991481;28;20050;-75
2022/10/19 05:02:59;;;;;;;18.08;5.97;;;12.40;99.90;;;;;;4982660;28;20074;-78
2022/10/19 05:05:25;;;;;;;12.85;7.57;;;12.40;99.90;;;;;;4972485;28;20372;-78
2022/10/19 05:07:51;;;;;;;23.85;6.88;;;12.40;99.90;;;;;;4969288;28;20242;-77
2022/10/19 05:10:17;;;;;;;25.63;9.82;;;12.40;99.90;;;;;;4987690;28;20027;-75
2022/10/19 05:12:42;;;;;;;16.65;7.80;;;12.40;99.90;;;;;;4985125;28;20038;-75
2022/10/19 05:15:09;;;;;;;17.30;8.57;;;12.50;99.90;;;;;;4969563;28;20030;-75
2022/10/19 05:17:34;;;;;;;19.48;9.95;;;12.60;99.90;;;;;;4968798;28;20073;-75
2022/10/19 05:20:01;;;;;;;23.40;11.60;;;;;;;;;;4968080;28;20461;-75
2022/10/19 05:22:26;;;;;;;16.42;9.43;;;12.60;99.90;;;;;;4985584;28;20022;-76
2022/10/19 05:24:52;;;;;;;8.23;4.70;;;12.50;99.90;;;;;;4988770;28;20110;-77
2022/10/19 05:27:18;;;;;;;8.25;5.30;;;12.50;99.90;;;;;;5004269;28;20034;-76
2022/10/19 05:29:43;;;;;;;9.35;6.13;;;12.60;99.90;;;;;;4986110;28;20030;-77
2022/10/19 05:32:09;;;;;;;25.30;9.10;;;12.60;99.90;;;;;;4971386;28;20054;-77
2022/10/19 05:34:35;;;;;;;24.85;8.15;;;12.70;99.90;;;;;;4979544;28;20023;-77
2022/10/19 05:37:00;;;;;;;14.15;7.85;;;12.70;99.90;;;;;;4970488;28;20516;-77
2022/10/19 05:39:26;;;;;;;10.00;5.97;;;12.70;99.90;;;;;;4969205;28;20019;-77
2022/10/19 05:41:52;;;;;;;19.00;7.53;;;12.70;99.90;;;;;;4971044;28;20177;-77
2022/10/19 05:44:20;;;;;;;14.98;8.65;;;12.80;99.90;;;;;;4971560;28;20027;-77
2022/10/19 05:46:47;;;;;;;19.50;11.27;;;12.80;99.90;;;;;;4969451;28;20488;-77
2022/10/19 05:49:14;;;;;;;18.65;7.22;;;12.80;99.90;;;;;;4969550;28;20558;-78
2022/10/19 05:51:39;;;;;;;15.43;9.05;;;12.80;99.90;;;;;;4969713;28;20361;-75
2022/10/19 05:54:06;;;;;;;17.08;8.55;;;13.20;99.90;;;;;;4968311;28;20240;-77
2022/10/19 05:56:35;;;;;;;12.88;6.78;;;12.70;99.90;;;;;;4969623;28;20114;-76
2022/10/19 05:59:06;;;;;;;28.58;9.65;;;12.70;99.90;;;;;;4969426;28;20062;-76
2022/10/19 06:01:33;;;;;;;22.95;9.27;;;12.80;99.90;;;;;;4969218;28;20109;-74
2022/10/19 06:03:59;;;;;;;22.55;12.10;;;12.80;99.90;;;;;;4969515;28;20488;-75
2022/10/19 06:06:26;;;;;;;22.08;11.90;;;12.80;99.90;;;;;;4969374;28;20437;-74
2022/10/19 06:08:53;;;;;;;24.67;9.45;;;12.60;99.90;;;;;;4969678;28;20030;-75
2022/10/19 06:11:28;;;;;;;34.65;10.10;;;12.60;99.90;;;;;;4970401;28;20083;-74
2022/10/19 06:13:56;;;;;;;16.20;6.47;;;12.60;99.90;;;;;;4970084;28;20090;-75
2022/10/19 06:16:23;;;;;;;26.33;9.68;;;12.50;99.90;;;;;;4969713;28;20042;-75
2022/10/19 06:18:49;;;;;;;15.38;7.53;;;12.50;99.90;;;;;;4970988;28;20052;-75
2022/10/19 06:21:18;;;;;;;25.02;9.13;;;12.50;99.90;;;;;;4972246;28;20050;-76
2022/10/19 06:24:06;;;;;;;10.80;6.85;;;12.50;99.90;;;;;;4974812;28;20015;-76
2022/10/19 06:26:34;;;;;;;11.70;6.28;;;12.60;99.90;;;;;;4974944;28;20113;-77
2022/10/19 06:29:01;;;;;;;21.15;7.18;;;12.60;99.90;;;;;;4974941;28;20278;-74
2022/10/19 06:31:32;;;;;;;16.80;7.50;;;12.60;99.90;;;;;;4972212;28;20498;-76
2022/10/19 06:33:58;;;;;;;55.67;12.05;;;12.60;99.90;;;;;;4973551;28;20627;-75
2022/10/19 06:36:27;;;;;;;32.28;11.43;;;12.50;99.90;;;;;;4974416;28;20054;-75
2022/10/19 06:38:52;;;;;;;28.40;7.20;;;12.60;99.90;;;;;;4974364;28;20109;-76
2022/10/19 06:41:19;;;;;;;23.05;8.25;;;12.50;99.90;;;;;;4974549;28;20142;-75
2022/10/19 06:43:49;;;;;;;27.15;8.85;;;12.50;99.90;;;;;;4974757;28;20058;-76
2022/10/19 06:46:19;;;;;;;31.92;7.20;;;12.50;99.90;;;;;;4974202;28;20035;-76
2022/10/19 06:48:51;;;;;;;;;;;12.50;99.90;;;;;;4974906;28;20022;-75
2022/10/19 06:51:17;;;;;;;22.80;7.15;;;12.40;99.90;;;;;;4974306;28;19917;-76
2022/10/19 06:53:43;;;;;;;15.30;6.95;;;12.50;99.90;;;;;;4974293;28;20026;-77
2022/10/19 06:56:09;;;;;;;19.80;7.78;;;12.50;99.90;;;;;;4974551;28;20460;-76
2022/10/19 06:58:36;;;;;;;16.83;7.32;;;12.60;99.90;;;;;;4974381;28;20435;-75
2022/10/19 07:01:03;;;;;;;17.10;9.05;;;12.60;99.90;;;;;;4973958;28;20424;-77
2022/10/19 07:03:29;;;;;;;24.05;7.38;;;12.50;99.90;;;;;;4974027;28;20034;-78
2022/10/19 07:05:57;;;;;;;20.08;8.30;;;12.50;99.90;;;;;;4973960;28;20031;-75
2022/10/19 07:08:23;;;;;;;37.30;10.90;;;;;;;;;;4973983;28;20098;-76
2022/10/19 07:10:55;;;;;;;12.73;5.60;;;12.50;99.90;;;;;;4974120;28;20110;-76
2022/10/19 07:13:21;;;;;;;28.58;6.55;;;12.50;99.90;;;;;;4973952;28;20542;-76
2022/10/19 07:15:47;;;;;;;29.70;6.10;;;12.40;99.90;;;;;;4973769;28;20030;-76
2022/10/19 07:18:13;;;;;;;11.40;6.70;;;12.50;99.90;;;;;;4973746;28;20019;-77
2022/10/19 07:20:39;;;;;;;9.93;5.55;;;12.50;99.90;;;;;;4973582;28;20050;-77
2022/10/19 07:23:06;;;;;;;7.47;5.38;;;12.60;99.90;;;;;;4972276;28;20023;-77
2022/10/19 07:25:32;;;;;;;22.63;7.18;;;;;;;;;;4973629;28;20101;-77
2022/10/19 07:27:58;;;;;;;12.45;6.18;;;12.60;99.90;;;;;;4973760;28;20031;-76
2022/10/19 07:30:24;;;;;;;18.45;6.65;;;12.70;99.90;;;;;;4973643;28;20029;-76
2022/10/19 07:32:49;;;;;;;11.80;7.05;;;12.70;99.90;;;;;;4972907;28;20354;-75
2022/10/19 07:35:15;;;;;;;11.02;5.72;;;12.60;99.90;;;;;;4972343;28;20266;-75
2022/10/19 07:37:41;;;;;;;13.40;6.18;;;12.60;99.90;;;;;;4973393;28;20490;-75
2022/10/19 07:40:07;;;;;;;17.35;6.65;;;12.60;99.90;;;;;;4973502;28;20026;-76
2022/10/19 07:42:36;;;;;;;10.35;6.40;;;12.60;99.90;;;;;;4973255;28;20023;-75
2022/10/19 07:45:05;;;;;;;19.73;7.57;;;12.70;99.90;;;;;;4973117;28;20034;-75
2022/10/19 07:47:32;;;;;;;17.55;4.32;;;12.80;99.90;;;;;;4973204;28;20035;-76
2022/10/19 07:49:58;;;;;;;8.32;4.75;;;12.80;99.90;;;;;;4973427;28;20109;-75
2022/10/19 07:52:24;;;;;;;11.70;4.95;;;12.70;99.90;;;;;;4973468;28;20531;-74
2022/10/19 07:54:49;;;;;;;14.57;5.53;;;12.70;99.90;;;;;;4973178;28;20504;-74
2022/10/19 07:57:15;;;;;;;12.48;5.45;;;12.80;99.90;;;;;;4973348;28;20472;-76
2022/10/19 07:59:41;;;;;;;16.40;6.68;;;12.80;99.90;;;;;;4972630;28;20042;-77
2022/10/19 08:02:15;;;;;;;15.52;7.25;;;12.90;99.90;;;;;;4972888;28;20027;-77
2022/10/19 08:04:41;;;;;;;8.30;5.50;;;12.70;99.90;;;;;;4972978;28;20035;-78
2022/10/19 08:07:07;;;;;;;11.15;5.88;;;12.80;99.90;;;;;;4972788;28;20392;-77
2022/10/19 08:09:33;;;;;;;16.02;6.43;;;12.90;99.90;;;;;;4973100;28;20472;-76
2022/10/19 08:11:59;;;;;;;19.50;6.95;;;12.90;99.90;;;;;;4972920;28;20027;-75
2022/10/19 08:14:25;;;;;;;27.80;7.72;;;13.00;99.90;;;;;;4972732;28;20446;-74
2022/10/19 08:16:50;;;;;;;12.52;5.35;;;13.00;99.90;;;;;;4972680;28;20030;-77
2022/10/19 08:19:16;;;;;;;15.52;7.25;;;12.90;99.90;;;;;;4972582;28;20468;-76
2022/10/19 08:21:46;;;;;;;28.00;8.15;;;13.00;99.90;;;;;;4972771;28;20062;-76
2022/10/19 08:24:13;;;;;;;17.77;8.50;;;13.30;99.90;;;;;;4972739;28;20019;-75
2022/10/19 08:26:40;;;;;;;12.38;6.22;;;13.30;99.90;;;;;;4972383;28;20027;-75
2022/10/19 08:29:07;;;;;;;22.38;6.95;;;13.60;99.90;;;;;;4972440;28;20027;-78
2022/10/19 08:31:33;;;;;;;9.30;6.22;;;13.60;99.90;;;;;;4972383;28;20424;-76
2022/10/19 08:33:58;;;;;;;12.38;5.95;;;13.70;99.90;;;;;;4971411;28;20661;-76
2022/10/19 08:36:24;;;;;;;12.80;6.38;;;13.70;99.90;;;;;;4972188;28;20029;-75
2022/10/19 08:38:50;;;;;;;13.85;6.43;;;13.70;99.90;;;;;;4972460;28;20034;-74
2022/10/19 08:41:31;;;;;;;12.05;6.13;;;13.80;99.90;;;;;;4972176;28;20029;-75
2022/10/19 08:44:23;;;;;;;10.07;5.47;;;13.80;99.90;;;;;;4970642;28;20031;-75
2022/10/19 08:46:48;;;;;;;20.75;7.28;;;13.80;99.90;;;;;;4971705;28;20524;-76
2022/10/19 08:49:20;;;;;;;14.23;7.20;;;13.80;99.90;;;;;;4970732;28;20088;-75
2022/10/19 08:51:57;;;;;;;17.73;8.73;;;13.80;99.90;;;;;;4972040;28;20023;-75
2022/10/19 08:54:29;;;;;;;17.02;8.30;;;13.80;99.90;;;;;;4972148;28;20019;-75
2022/10/19 08:57:19;;;;;;;20.48;8.25;;;14.00;99.90;;;;;;4972467;28;20030;-76
2022/10/19 09:00:02;;;;;;;17.05;6.65;;;14.30;99.90;;;;;;4971706;28;20034;-75
2022/10/19 09:03:12;;;;;;;13.75;6.25;;;14.30;99.90;;;;;;4970506;28;20019;-75
2022/10/19 09:05:38;;;;;;;25.63;6.90;;;14.30;99.90;;;;;;4972074;28;20026;-76
2022/10/19 09:08:03;;;;;;;16.52;7.53;;;14.60;99.90;;;;;;4972314;28;20512;-75
2022/10/19 09:10:32;;;;;;;9.40;5.88;;;;;;;;;;4971784;28;20031;-78
2022/10/19 09:13:15;;;;;;;9.63;5.85;;;14.80;99.90;;;;;;4971695;28;20034;-77
2022/10/19 09:15:46;;;;;;;10.30;5.28;;;14.70;99.90;;;;;;4972049;28;20030;-76
2022/10/19 09:18:28;;;;;;;10.63;5.18;;;14.60;99.90;;;;;;4970486;28;20081;-75
2022/10/19 09:21:12;;;;;;;14.13;6.03;;;14.70;99.90;;;;;;4971476;28;20132;-77
2022/10/19 09:23:48;;;;;;;17.20;7.07;;;14.70;99.90;;;;;;4972026;28;20018;-75
2022/10/19 09:26:17;;;;;;;9.02;5.47;;;15.00;99.90;;;;;;4971864;28;20027;-75
2022/10/19 09:29:06;;;;;;;11.18;5.55;;;15.30;99.90;;;;;;4971715;28;20055;-75
2022/10/19 09:31:38;;;;;;;11.93;5.40;;;15.20;99.90;;;;;;4970142;28;20060;-76
2022/10/19 09:34:30;;;;;;;11.10;5.32;;;15.20;99.90;;;;;;4972069;28;20062;-77
2022/10/19 09:36:57;;;;;;;10.80;5.47;;;15.20;99.90;;;;;;4971815;28;20079;-75
2022/10/19 09:39:28;;;;;;;9.75;4.75;;;15.40;99.90;;;;;;4971620;28;20046;-74
2022/10/19 09:41:56;;;;;;;9.65;4.78;;;15.20;99.90;;;;;;4970404;28;20031;-75
2022/10/19 09:44:26;;;;;;;10.13;4.88;;;15.30;99.90;;;;;;4970050;28;20037;-77
2022/10/19 09:47:06;;;;;;;6.22;4.68;;;15.40;99.90;;;;;;4971721;28;20039;-77
2022/10/19 09:49:46;;;;;;;9.50;4.65;;;15.50;99.90;;;;;;4971400;28;20567;-75
2022/10/19 09:52:30;;;;;;;13.07;5.20;;;15.90;99.90;;;;;;4969542;28;20041;-77
2022/10/19 09:55:00;;;;;;;8.88;4.13;;;16.50;99.90;;;;;;4971966;28;20212;-75
2022/10/19 09:57:26;;;;;;;6.75;4.55;;;16.70;99.90;;;;;;4973074;28;20031;-75
2022/10/19 09:59:52;;;;;;;8.40;4.88;;;17.10;99.90;;;;;;4973419;28;20053;-75
2022/10/19 10:02:20;;;;;;;6.22;4.40;;;17.10;99.90;;;;;;4977820;28;20478;-76
2022/10/19 10:05:06;;;;;;;12.13;6.20;;;17.00;99.90;;;;;;4977317;28;20031;-76
2022/10/19 10:07:37;;;;;;;6.97;4.55;;;16.90;99.90;;;;;;4978341;28;20506;-77
2022/10/19 10:10:33;;;;;;;10.32;4.85;;;17.10;99.90;;;;;;4973949;28;20057;-75
2022/10/19 10:13:00;;;;;;;10.85;5.47;;;16.90;99.90;;;;;;4974067;28;20035;-74
2022/10/19 10:15:34;;;;;;;7.68;3.97;;;17.10;99.90;;;;;;4975120;28;20168;-74
2022/10/19 10:17:59;;;;;;;9.55;4.25;;;17.00;99.90;;;;;;4973814;28;20114;-74
2022/10/19 10:20:29;;;;;;;8.05;4.28;;;16.90;99.90;;;;;;4973466;28;20134;-75
2022/10/19 10:23:00;;;;;;;5.07;3.50;;;17.00;99.90;;;;;;4974771;28;20027;-74
2022/10/19 10:25:30;;;;;;;5.72;3.50;;;17.00;99.90;;;;;;4974787;28;20119;-75
2022/10/19 10:28:02;;;;;;;9.13;4.45;;;16.60;99.90;;;;;;4976800;28;20349;-75
2022/10/19 10:30:35;;;;;;;6.47;3.75;;;16.70;99.90;;;;;;4978124;28;20043;-75
2022/10/19 10:33:02;;;;;;;5.18;4.22;;;16.90;99.90;;;;;;4978774;28;20109;-75
2022/10/19 10:35:31;;;;;;;9.90;4.07;;;;;;;;;;4981041;28;20050;-75
2022/10/19 10:38:25;;;;;;;11.60;4.07;;;17.20;99.90;;;;;;4979391;28;20077;-76
2022/10/19 10:40:59;;;;;;;5.82;4.15;;;17.20;99.90;;;;;;4980689;28;20102;-76
2022/10/19 10:43:33;;;;;;;7.13;3.92;;;;;;;;;;4973623;28;20057;-77
2022/10/19 10:46:05;;;;;;;5.75;3.17;;;17.40;99.90;;;;;;4995640;28;20030;-76
2022/10/19 10:48:38;;;;;;;6.60;3.72;;;17.50;99.90;;;;;;4978869;28;20030;-76
2022/10/19 10:51:19;;;;;;;7.80;3.42;;;17.80;99.90;;;;;;4984763;28;20034;-76
2022/10/19 10:53:46;;;;;;;3.63;3.30;;;;;;;;;;4980542;28;20222;-77
2022/10/19 10:56:27;;;;;;;7.25;3.42;;;18.10;99.90;;;;;;4984675;28;20026;-75
2022/10/19 10:59:22;;;;;;;6.82;2.92;;;18.20;99.90;;;;;;4982503;28;20030;-77
2022/10/19 11:01:57;;;;;;;6.57;3.58;;;18.10;99.90;;;;;;4982054;28;20061;-75
2022/10/19 11:04:35;;;;;;;4.38;2.90;;;18.00;99.90;;;;;;4979787;28;20030;-75
2022/10/19 11:07:18;;;;;;;5.43;3.47;;;18.20;99.90;;;;;;4979610;28;20100;-74
2022/10/19 11:09:57;;;;;;;5.60;2.78;;;18.10;99.90;;;;;;4980906;28;20491;-76
2022/10/19 11:12:45;;;;;;;4.77;2.67;;;18.10;99.90;;;;;;4984748;28;20088;-75
2022/10/19 11:15:24;;;;;;;10.30;2.90;;;18.00;99.90;;;;;;4978058;28;20562;-77
2022/10/19 11:18:34;;;;;;;4.90;2.97;;;18.00;99.90;;;;;;4986777;28;20023;-76
2022/10/19 11:21:24;;;;;;;3.65;2.55;;;18.10;99.90;;;;;;4982503;28;20081;-75
2022/10/19 11:23:58;;;;;;;3.58;2.55;;;18.20;99.90;;;;;;4986886;28;20022;-76
2022/10/19 11:27:02;;;;;;;8.05;3.30;;;18.20;99.90;;;;;;4981009;28;20053;-76
2022/10/19 11:29:30;;;;;;;5.75;2.55;;;18.10;99.90;;;;;;4981620;28;20014;-75
2022/10/19 11:31:56;;;;;;;6.35;3.90;;;18.20;99.90;;;;;;4988412;28;20015;-76
2022/10/19 11:34:31;;;;;;;4.95;3.35;;;18.40;99.90;;;;;;4992419;28;20034;-75
2022/10/19 11:37:23;;;;;;;7.57;3.35;;;18.40;99.90;;;;;;4987469;28;20026;-76
2022/10/19 11:39:54;;;;;;;12.82;3.28;;;18.40;99.90;;;;;;4988344;28;20049;-74
2022/10/19 11:42:32;;;;;;;8.90;3.00;;;;;;;;;;4990834;28;20014;-75
2022/10/19 11:45:11;;;;;;;5.45;3.83;;;18.30;99.90;;;;;;4991428;28;20022;-74
2022/10/19 11:48:05;;;;;;;7.53;3.40;;;18.20;99.90;;;;;;5004218;28;20043;-76
2022/10/19 11:50:37;;;;;;;9.02;3.25;;;18.10;99.90;;;;;;4983546;28;20026;-76
2022/10/19 11:53:20;;;;;;;10.35;4.72;;;18.10;99.90;;;;;;4983263;28;20034;-75
2022/10/19 11:56:16;;;;;;;5.20;2.90;;;18.10;99.90;;;;;;4984164;28;20078;-75
2022/10/19 11:59:02;;;;;;;6.38;3.10;;;18.20;99.90;;;;;;4984172;28;20065;-76
2022/10/19 12:01:54;;;;;;;9.45;3.08;;;18.20;99.90;;;;;;4978678;28;20097;-76
2022/10/19 12:04:52;;;;;;;5.55;4.07;;;18.30;99.90;;;;;;4983017;28;20031;-76
2022/10/19 12:07:40;;;;;;;8.65;3.60;;;18.30;99.90;;;;;;4948888;28;20094;-76
2022/10/19 12:10:12;;;;;;;4.93;2.60;;;18.10;99.90;;;;;;4980279;28;20385;-77
2022/10/19 12:12:51;;;;;;;7.90;3.75;;;18.10;99.90;;;;;;4972032;28;20126;-77
2022/10/19 12:15:17;;;;;;;;;;;18.20;99.90;;;;;;4978193;28;20498;-77
2022/10/19 12:17:46;;;;;;;16.55;3.72;;;16.10;99.90;;;;;;4981442;28;19996;-77
2022/10/19 12:20:19;;;;;;;7.82;4.50;;;18.80;99.90;;;;;;4979279;28;20046;-77
2022/10/19 12:22:46;;;;;;;13.15;3.20;;;19.10;99.90;;;;;;4978263;28;20031;-77
2022/10/19 12:25:14;;;;;;;8.30;3.95;;;19.30;99.90;;;;;;4981246;28;20023;-76
2022/10/19 12:27:41;;;;;;;4.82;3.33;;;20.20;99.90;;;;;;4980186;28;20031;-77
2022/10/19 12:30:14;;;;;;;6.57;3.22;;;20.20;99.90;;;;;;4989091;28;20085;-76
2022/10/19 12:32:57;;;;;;;6.55;3.28;;;20.50;99.90;;;;;;4990687;28;20537;-76
2022/10/19 12:35:51;;;;;;;3.55;3.17;;;20.10;99.90;;;;;;4981017;28;20178;-76
2022/10/19 12:38:36;;;;;;;14.93;4.78;;;20.00;99.90;;;;;;4990689;28;20101;-76
2022/10/19 12:41:37;;;;;;;8.93;4.00;;;20.30;99.90;;;;;;4988612;28;20026;-77
2022/10/19 12:44:57;;;;;;;7.88;4.35;;;21.00;99.90;;;;;;4988160;28;20018;-77
2022/10/19 12:47:24;;;;;;;5.35;3.65;;;21.20;99.90;;;;;;4928950;29;20042;-77
2022/10/19 12:49:52;;;;;;;6.28;2.72;;;20.80;99.90;;;;;;4978345;28;20030;-77
2022/10/19 12:52:37;;;;;;;3.95;3.05;;;20.80;99.90;;;;;;4989841;28;20022;-77
2022/10/19 12:55:11;;;;;;;5.85;4.05;;;21.50;99.90;;;;;;4989607;28;20152;-78
2022/10/19 12:57:38;;;;;;;7.63;3.65;;;22.00;99.90;;;;;;4972638;28;20118;-76
2022/10/19 13:00:24;;;;;;;10.63;3.70;;;22.00;99.90;;;;;;4970114;28;20022;-77
2022/10/19 13:03:20;;;;;;;7.05;3.15;;;21.80;99.90;;;;;;4970590;28;20031;-76
2022/10/19 13:06:00;;;;;;;8.50;3.38;;;21.80;99.90;;;;;;4969206;28;20042;-77